Time;durP1;ratioP1;P1;durP2;ratioP2;P2;SDS_P1;SDS_P2;PMS_P1;PMS_P2;Temp;Humidity;BMP_temperature;BMP_pressure;BME280_temperature;BME280_humidity;BME280_pressure;Samples;Min_cycle;Max_cycle;Signal;HPM_P1;HPM_P2
2023/04/17 00:01:54;;;;;;;73.85;28.20;;;;;;;8.74;100.00;102579.72;5208644;28;20074;-74
2023/04/17 00:04:25;;;;;;;75.30;29.88;;;;;;;8.74;100.00;102585.06;5226491;28;20066;-74
2023/04/17 00:06:55;;;;;;;70.20;28.85;;;;;;;8.78;100.00;102589.19;5208016;28;20021;-74
2023/04/17 00:09:26;;;;;;;73.13;27.25;;;;;;;8.81;100.00;102588.13;5227064;28;20098;-74
2023/04/17 00:11:57;;;;;;;71.93;27.27;;;;;;;8.83;100.00;102586.19;5226308;28;20029;-74
2023/04/17 00:14:27;;;;;;;64.68;26.95;;;;;;;8.80;100.00;102587.28;5225588;28;20075;-76
2023/04/17 00:16:58;;;;;;;67.20;27.27;;;;;;;8.76;100.00;102584.94;5225717;28;20553;-74
2023/04/17 00:19:28;;;;;;;69.05;27.55;;;;;;;8.82;100.00;102573.78;5226384;28;20055;-74
2023/04/17 00:21:59;;;;;;;72.50;28.58;;;;;;;8.77;100.00;102571.44;5226413;28;20023;-74
2023/04/17 00:24:29;;;;;;;69.88;29.13;;;;;;;8.77;100.00;102567.91;5226468;28;20035;-74
2023/04/17 00:27:00;;;;;;;70.43;28.17;;;;;;;8.77;100.00;102567.91;5225938;28;20095;-74
2023/04/17 00:29:31;;;;;;;68.65;28.35;;;;;;;8.79;100.00;102568.66;5225900;28;20025;-74
2023/04/17 00:32:02;;;;;;;65.85;27.88;;;;;;;8.76;100.00;102568.88;5225836;28;20025;-74
2023/04/17 00:34:33;;;;;;;77.35;28.63;;;;;;;8.78;100.00;102559.75;5208569;28;20019;-74
2023/04/17 00:37:03;;;;;;;70.75;27.83;;;;;;;8.75;100.00;102567.19;5208163;28;20437;-74
2023/04/17 00:39:34;;;;;;;72.25;28.92;;;;;;;8.75;100.00;102559.16;5225979;28;20017;-74
2023/04/17 00:42:04;;;;;;;80.03;28.98;;;;;;;8.72;100.00;102570.91;5223400;28;20035;-74
2023/04/17 00:44:35;;;;;;;71.88;28.27;;;;;;;8.70;100.00;102561.31;5208435;28;20036;-74
2023/04/17 00:47:06;;;;;;;76.38;28.40;;;;;;;8.74;100.00;102560.13;5226783;28;20021;-74
2023/04/17 00:49:36;;;;;;;69.53;28.63;;;;;;;8.82;100.00;102560.41;5227066;28;20021;-74
2023/04/17 00:52:07;;;;;;;78.28;29.45;;;;;;;8.80;100.00;102559.66;5207823;28;20052;-74
2023/04/17 00:54:38;;;;;;;73.63;29.48;;;;;;;8.75;100.00;102556.47;5225790;28;20036;-74
2023/04/17 00:57:08;;;;;;;80.15;29.55;;;;;;;8.73;100.00;102558.38;5207675;28;20052;-74
2023/04/17 00:59:42;;;;;;;79.50;29.92;;;;;;;8.72;100.00;102557.53;5225515;28;20029;-74
2023/04/17 01:02:13;;;;;;;71.03;29.38;;;;;;;8.76;100.00;102555.50;5226210;28;20021;-74
2023/04/17 01:04:44;;;;;;;80.72;29.92;;;;;;;8.73;100.00;102558.38;5225711;28;20040;-74
2023/04/17 01:07:15;;;;;;;67.45;29.20;;;;;;;8.68;100.00;102555.19;5226086;28;20020;-74
2023/04/17 01:09:45;;;;;;;74.50;28.60;;;;;;;8.68;100.00;102555.19;5225568;28;20035;-74
2023/04/17 01:12:19;;;;;;;71.57;28.27;;;;;;;8.67;100.00;102553.50;5225806;28;20037;-74
2023/04/17 01:14:51;;;;;;;72.72;29.60;;;;;;;8.65;100.00;102564.31;5225362;28;20055;-74
2023/04/17 01:17:28;;;;;;;71.45;28.80;;;;;;;8.66;100.00;102555.31;5226985;28;20381;-74
2023/04/17 01:20:09;;;;;;;75.90;30.65;;;;;;;8.74;100.00;102560.13;5196479;28;20053;-74
2023/04/17 01:22:41;;;;;;;;;;;;;;;8.75;100.00;102559.16;5226305;28;20104;-74
2023/04/17 01:25:12;;;;;;;74.95;28.48;;;;;;;8.75;100.00;102561.81;5225669;28;20004;-74
2023/04/17 01:27:42;;;;;;;75.15;29.20;;;;;;;8.76;100.00;102563.53;5224741;28;20032;-74
2023/04/17 01:30:34;;;;;;;78.63;29.58;;;;;;;8.70;100.00;102559.47;5210466;28;20562;-74
2023/04/17 01:33:04;;;;;;;79.93;29.35;;;;;;;8.71;100.00;102571.88;5207845;28;20456;-74
2023/04/17 01:35:35;;;;;;;81.18;30.85;;;;;;;8.72;100.00;102568.25;5207623;28;20032;-74
2023/04/17 01:38:05;;;;;;;83.70;29.75;;;;;;;8.71;100.00;102574.56;5224608;28;20021;-74
2023/04/17 01:40:36;;;;;;;82.18;30.00;;;;;;;8.68;100.00;102571.25;5224645;28;20033;-74
2023/04/17 01:43:06;;;;;;;72.75;29.98;;;;;;;8.69;100.00;102581.00;5207468;28;20083;-74
2023/04/17 01:45:37;;;;;;;75.30;28.40;;;;;;;8.68;100.00;102576.59;5224900;28;20025;-74
2023/04/17 01:48:07;;;;;;;82.22;29.83;;;;;;;8.67;100.00;102566.88;5224345;28;20032;-74
2023/04/17 01:50:38;;;;;;;85.47;32.33;;;;;;;8.66;100.00;102573.19;5224060;28;20025;-74
2023/04/17 01:53:08;;;;;;;83.80;30.17;;;;;;;8.64;100.00;102561.75;5206932;28;20046;-74
2023/04/17 01:55:39;;;;;;;77.10;29.40;;;;;;;8.64;100.00;102565.28;5225200;28;20031;-74
2023/04/17 01:58:10;;;;;;;83.97;31.30;;;;;;;8.62;100.00;102563.69;5224491;28;20119;-74
2023/04/17 02:00:45;;;;;;;81.68;31.63;;;;;;;8.64;100.00;102576.00;5225131;28;20560;-74
2023/04/17 02:03:25;;;;;;;79.60;30.83;;;;;;;8.65;100.00;102566.16;5224760;28;20473;-74
2023/04/17 02:05:56;;;;;;;85.97;32.30;;;;;;;8.64;100.00;102561.75;5225069;28;20050;-74
2023/04/17 02:08:36;;;;;;;82.70;31.85;;;;;;;8.64;100.00;102565.28;5212072;28;20029;-74
2023/04/17 02:11:12;;;;;;;90.50;33.15;;;;;;;8.57;100.00;102562.19;5225238;28;20025;-74
2023/04/17 02:13:43;;;;;;;82.32;32.03;;;;;;;8.59;100.00;102567.44;5225144;28;20085;-74
2023/04/17 02:16:13;;;;;;;83.28;30.90;;;;;;;8.56;100.00;102563.16;5190109;28;20478;-74
2023/04/17 02:18:44;;;;;;;89.45;32.17;;;;;;;8.57;100.00;102558.66;5206557;28;20066;-74
2023/04/17 02:21:15;;;;;;;84.57;32.00;;;;;;;8.52;100.00;102561.66;5224789;28;20670;-74
2023/04/17 02:23:45;;;;;;;89.93;33.00;;;;;;;8.51;100.00;102559.97;5224279;28;20538;-74
2023/04/17 02:26:16;;;;;;;95.22;33.97;;;;;;;8.47;100.00;102566.50;5224198;28;20497;-74
2023/04/17 02:28:46;;;;;;;92.55;33.05;;;;;;;8.48;100.00;102562.00;5224320;28;20588;-74
2023/04/17 02:31:17;;;;;;;89.65;33.92;;;;;;;8.45;100.00;102562.25;5206327;28;20164;-74
2023/04/17 02:33:48;;;;;;;85.95;35.15;;;;;;;8.45;100.00;102557.75;5224647;28;20025;-74
2023/04/17 02:36:18;;;;;;;85.72;31.20;;;;;;;8.42;100.00;102560.63;5223842;28;20051;-74
2023/04/17 02:38:49;;;;;;;96.20;34.30;;;;;;;8.38;100.00;102561.81;5227204;28;20548;-74
2023/04/17 02:41:19;;;;;;;88.15;33.25;;;;;;;8.39;100.00;102555.50;5228576;28;20024;-74
2023/04/17 02:43:49;;;;;;;94.75;34.17;;;;;;;8.39;100.00;102558.19;5210567;28;20432;-74
2023/04/17 02:46:20;;;;;;;89.85;32.97;;;;;;;8.35;100.00;102559.34;5227903;28;20420;-74
2023/04/17 02:48:50;;;;;;;87.82;34.80;;;;;;;8.34;100.00;102556.78;5227730;28;20071;-74
2023/04/17 02:51:21;;;;;;;86.72;33.05;;;;;;;8.33;100.00;102563.91;5228076;28;20060;-74
2023/04/17 02:53:51;;;;;;;111.55;38.33;;;;;;;8.34;100.00;102552.28;5228278;28;20477;-74
2023/04/17 02:56:22;;;;;;;93.82;34.28;;;;;;;8.33;100.00;102555.91;5227599;28;20032;-74
2023/04/17 02:58:53;;;;;;;93.20;34.35;;;;;;;8.29;100.00;102559.78;5227936;28;20027;-74
2023/04/17 03:01:23;;;;;;;97.82;33.72;;;;;;;8.30;100.00;102558.81;5227201;28;20108;-74
2023/04/17 03:03:54;;;;;;;101.25;34.80;;;;;;;8.27;100.00;102565.22;5228234;28;20021;-74
2023/04/17 03:06:25;;;;;;;98.95;34.50;;;;;;;8.28;100.00;102563.41;5209662;28;20025;-74
2023/04/17 03:08:56;;;;;;;99.47;34.42;;;;;;;8.22;100.00;102571.84;5227892;28;20422;-73
2023/04/17 03:11:26;;;;;;;89.45;33.85;;;;;;;8.26;100.00;102576.03;5227596;28;20021;-74
2023/04/17 03:13:56;;;;;;;88.68;34.13;;;;;;;8.26;100.00;102563.50;5227438;28;20054;-74
2023/04/17 03:16:27;;;;;;;100.00;35.05;;;;;;;8.19;100.00;102562.25;5227192;28;20495;-74
2023/04/17 03:18:57;;;;;;;99.30;36.17;;;;;;;8.28;100.00;102558.94;5228866;28;20105;-74
2023/04/17 03:21:28;;;;;;;100.43;36.63;;;;;;;8.27;100.00;102564.38;5227529;28;20021;-74
2023/04/17 03:23:58;;;;;;;96.70;35.42;;;;;;;8.27;100.00;102567.03;5227619;28;20508;-74
2023/04/17 03:26:29;;;;;;;94.65;33.95;;;;;;;8.23;100.00;102558.41;5226701;28;20032;-74
2023/04/17 03:28:59;;;;;;;78.88;32.50;;;;;;;8.22;100.00;102559.34;5227041;28;20041;-74
2023/04/17 03:31:30;;;;;;;89.05;34.72;;;;;;;8.22;100.00;102558.50;5227240;28;20059;-74
2023/04/17 03:34:00;;;;;;;90.00;36.13;;;;;;;8.21;100.00;102552.28;5209187;28;20036;-74
2023/04/17 03:36:31;;;;;;;78.38;30.42;;;;;;;8.22;100.00;102555.81;5227057;28;20029;-74
2023/04/17 03:39:01;;;;;;;82.05;33.30;;;;;;;8.23;100.00;102555.72;5209131;28;20040;-74
2023/04/17 03:41:32;;;;;;;78.90;31.60;;;;;;;8.20;100.00;102555.94;5209228;28;20025;-74
2023/04/17 03:44:03;;;;;;;79.60;31.35;;;;;;;8.19;100.00;102559.59;5209034;28;20032;-74
2023/04/17 03:46:34;;;;;;;81.70;32.80;;;;;;;8.19;100.00;102556.06;5227258;28;20036;-74
2023/04/17 03:49:05;;;;;;;85.30;32.83;;;;;;;8.18;100.00;102557.00;5226699;28;20032;-74
2023/04/17 03:51:35;;;;;;;73.60;29.92;;;;;;;8.18;100.00;102557.88;5226769;28;20029;-74
2023/04/17 03:54:06;;;;;;;76.13;30.92;;;;;;;8.18;100.00;102552.53;5209166;28;20099;-74
2023/04/17 03:56:36;;;;;;;83.70;31.95;;;;;;;8.19;100.00;102553.38;5226539;28;20036;-74
2023/04/17 03:59:07;;;;;;;73.78;29.02;;;;;;;8.17;100.00;102555.28;5227024;28;20171;-74
2023/04/17 04:01:38;;;;;;;74.40;31.13;;;;;;;8.18;100.00;102560.56;5226668;28;20481;-74
2023/04/17 04:04:08;;;;;;;77.65;29.48;;;;;;;8.18;100.00;102557.00;5227236;28;20029;-74
2023/04/17 04:06:39;;;;;;;70.80;30.58;;;;;;;8.23;100.00;102555.72;5227099;28;20021;-74
2023/04/17 04:09:10;;;;;;;70.30;28.95;;;;;;;8.20;100.00;102553.25;5226944;28;20059;-74
2023/04/17 04:11:40;;;;;;;64.10;27.35;;;;;;;8.18;100.00;102555.19;5226316;28;20033;-74
2023/04/17 04:14:11;;;;;;;70.20;29.38;;;;;;;8.20;100.00;102547.06;5226579;28;20032;-74
2023/04/17 04:16:44;;;;;;;68.90;28.83;;;;;;;8.25;100.00;102548.44;5226185;28;20027;-74
2023/04/17 04:19:14;;;;;;;62.22;28.23;;;;;;;8.24;100.00;102553.91;5228396;28;20040;-74
2023/04/17 04:21:45;;;;;;;70.60;28.13;;;;;;;8.20;100.00;102547.91;5226446;28;20380;-74
2023/04/17 04:24:16;;;;;;;71.32;27.73;;;;;;;8.23;100.00;102552.16;5226271;28;20082;-74
2023/04/17 04:26:48;;;;;;;70.55;29.25;;;;;;;8.21;100.00;102546.09;5207924;28;20060;-74
2023/04/17 04:29:24;;;;;;;66.82;29.13;;;;;;;8.25;100.00;102548.44;5226330;28;20086;-74
2023/04/17 04:31:55;;;;;;;71.70;29.50;;;;;;;8.21;100.00;102549.63;5226344;28;20033;-74
2023/04/17 04:34:28;;;;;;;76.07;30.15;;;;;;;8.28;100.00;102552.69;5226488;28;20037;-74
2023/04/17 04:36:59;;;;;;;71.28;29.25;;;;;;;8.25;100.00;102553.78;5225821;28;20033;-74
2023/04/17 04:39:29;;;;;;;77.22;29.30;;;;;;;8.23;100.00;102561.06;5225905;28;20036;-74
2023/04/17 04:42:04;;;;;;;74.47;30.15;;;;;;;8.24;100.00;102564.59;5207526;28;20436;-74
2023/04/17 04:44:36;;;;;;;74.95;29.08;;;;;;;8.20;100.00;102555.94;5225128;28;20025;-74
2023/04/17 04:47:06;;;;;;;76.38;30.00;;;;;;;8.16;100.00;102565.13;5226134;28;20672;-74
2023/04/17 04:49:37;;;;;;;69.85;29.02;;;;;;;8.11;100.00;102556.59;5207899;28;20031;-74
2023/04/17 04:52:07;;;;;;;76.43;30.25;;;;;;;8.11;100.00;102566.44;5225397;28;20029;-74
2023/04/17 04:54:38;;;;;;;70.38;28.17;;;;;;;8.12;100.00;102560.09;5226217;28;20538;-74
2023/04/17 04:57:11;;;;;;;74.47;28.52;;;;;;;8.13;100.00;102564.47;5207408;28;20028;-74
2023/04/17 04:59:41;;;;;;;69.57;28.33;;;;;;;8.13;100.00;102565.34;5225030;28;20021;-74
2023/04/17 05:02:12;;;;;;;66.35;27.08;;;;;;;8.16;100.00;102551.75;5224689;28;20031;-74
2023/04/17 05:04:42;;;;;;;63.63;26.15;;;;;;;8.15;100.00;102567.91;5225559;28;20029;-74
2023/04/17 05:07:13;;;;;;;58.35;25.60;;;;;;;8.15;100.00;102559.91;5225059;28;20025;-74
2023/04/17 05:09:44;;;;;;;59.42;24.80;;;;;;;8.15;100.00;102562.56;5225006;28;20499;-74
2023/04/17 05:12:14;;;;;;;48.70;23.27;;;;;;;8.17;100.00;102564.16;5225271;28;20060;-74
2023/04/17 05:14:46;;;;;;;63.67;25.77;;;;;;;8.18;100.00;102565.91;5224874;28;20115;-74
2023/04/17 05:17:17;;;;;;;63.20;26.30;;;;;;;8.20;100.00;102565.78;5224742;28;20029;-74
2023/04/17 05:19:47;;;;;;;54.47;24.45;;;;;;;8.21;100.00;102564.81;5225596;28;20036;-74
2023/04/17 05:22:20;;;;;;;59.17;25.65;;;;;;;8.20;100.00;102574.66;5207699;28;20032;-74
2023/04/17 05:24:50;;;;;;;69.05;26.35;;;;;;;8.21;100.00;102571.00;5191151;28;20086;-74
2023/04/17 05:27:21;;;;;;;62.08;26.02;;;;;;;8.26;100.00;102584.06;5207004;28;20028;-74
2023/04/17 05:29:51;;;;;;;61.58;25.90;;;;;;;8.27;100.00;102588.44;5224616;28;20040;-74
2023/04/17 05:32:22;;;;;;;51.13;23.95;;;;;;;8.39;100.00;102581.41;5224796;28;20485;-74
2023/04/17 05:34:52;;;;;;;58.15;25.25;;;;;;;8.33;100.00;102588.00;5224824;28;20021;-74
2023/04/17 05:37:23;;;;;;;64.43;25.75;;;;;;;8.31;100.00;102590.78;5224224;28;20032;-74
2023/04/17 05:39:53;;;;;;;58.72;26.65;;;;;;;8.29;100.00;102590.03;5224160;28;20029;-74
2023/04/17 05:42:24;;;;;;;58.95;25.35;;;;;;;8.33;100.00;102588.00;5220310;28;20025;-74
2023/04/17 05:44:54;;;;;;;62.50;25.83;;;;;;;8.33;100.00;102598.69;5224385;28;20393;-74
2023/04/17 05:47:25;;;;;;;69.15;27.67;;;;;;;8.34;100.00;102589.72;5224104;28;20158;-74
2023/04/17 05:49:57;;;;;;;74.72;26.63;;;;;;;8.43;100.00;102594.41;5224032;28;20627;-74
2023/04/17 05:52:28;;;;;;;64.47;27.05;;;;;;;8.48;100.00;102588.75;5224216;28;20090;-74
2023/04/17 05:55:02;;;;;;;65.45;27.60;;;;;;;8.49;100.00;102588.66;5224218;28;20013;-74
2023/04/17 05:57:33;;;;;;;60.03;24.83;;;;;;;8.54;100.00;102596.34;5206387;28;20033;-74
2023/04/17 06:00:09;;;;;;;67.43;25.95;;;;;;;8.60;100.00;102593.22;5220264;28;20031;-74
2023/04/17 06:02:41;;;;;;;65.15;25.02;;;;;;;8.68;100.00;102598.84;5214624;28;20040;-74
2023/04/17 06:05:12;;;;;;;58.50;24.25;;;;;;;8.70;100.00;102596.94;5223157;28;20654;-74
2023/04/17 06:07:43;;;;;;;60.60;25.27;;;;;;;8.69;100.00;102594.41;5222218;28;20032;-74
2023/04/17 06:10:14;;;;;;;61.63;26.13;;;;;;;8.71;100.00;102598.66;5222934;28;20017;-74
2023/04/17 06:12:44;;;;;;;61.85;26.60;;;;;;;8.69;100.00;102603.28;5221568;28;20625;-74
2023/04/17 06:15:15;;;;;;;62.55;25.77;;;;;;;8.69;100.00;102605.09;5222271;28;20032;-74
2023/04/17 06:17:45;;;;;;;70.47;26.13;;;;;;;8.64;100.00;102608.09;5222134;28;20410;-74
2023/04/17 06:20:16;;;;;;;64.25;26.15;;;;;;;8.68;100.00;102603.34;5222709;28;20039;-74
2023/04/17 06:22:46;;;;;;;62.45;26.48;;;;;;;8.64;100.00;102601.91;5208419;28;20036;-74
2023/04/17 06:25:17;;;;;;;64.97;27.20;;;;;;;8.61;100.00;102608.31;5222752;28;20543;-74
2023/04/17 06:27:48;;;;;;;66.07;26.55;;;;;;;8.62;100.00;102614.50;5221858;28;20472;-74
2023/04/17 06:30:19;;;;;;;54.63;25.10;;;;;;;8.67;100.00;102615.03;5220820;28;20029;-74
2023/04/17 06:32:49;;;;;;;63.97;25.95;;;;;;;8.66;100.00;102616.00;5201964;28;20029;-74
2023/04/17 06:35:20;;;;;;;71.28;28.00;;;;;;;8.67;100.00;102618.56;5226832;28;20500;-74
2023/04/17 06:37:50;;;;;;;65.03;26.80;;;;;;;8.65;100.00;102620.50;5222834;28;20485;-74
2023/04/17 06:40:20;;;;;;;63.00;27.85;;;;;;;8.63;100.00;102625.09;5220318;28;20610;-74
2023/04/17 06:42:51;;;;;;;70.25;29.73;;;;;;;8.62;100.00;102625.22;5222390;28;20025;-74
2023/04/17 06:45:21;;;;;;;73.22;27.95;;;;;;;8.64;100.00;102626.84;5223048;28;20060;-74
2023/04/17 06:47:52;;;;;;;68.45;28.23;;;;;;;8.64;100.00;102628.66;5203221;28;20036;-74
2023/04/17 06:50:23;;;;;;;75.72;29.88;;;;;;;8.59;100.00;102637.00;5221421;28;20497;-74
2023/04/17 06:52:53;;;;;;;67.05;28.17;;;;;;;8.61;100.00;102637.75;5220629;28;20028;-74
2023/04/17 06:55:25;;;;;;;71.60;27.65;;;;;;;8.71;100.00;102633.44;5220150;28;20027;-74
2023/04/17 06:57:55;;;;;;;60.63;25.45;;;;;;;8.70;100.00;102633.56;5221819;28;20487;-74
2023/04/17 07:00:26;;;;;;;59.38;25.48;;;;;;;8.70;100.00;102634.41;5220292;28;20025;-74
2023/04/17 07:02:56;;;;;;;60.60;27.50;;;;;;;8.75;100.00;102642.97;5226865;28;20046;-74
2023/04/17 07:05:27;;;;;;;58.53;25.60;;;;;;;8.80;100.00;102635.44;5230962;28;20056;-74
2023/04/17 07:07:57;;;;;;;53.25;23.63;;;;;;;8.82;100.00;102646.03;5230056;28;20609;-74
2023/04/17 07:10:28;;;;;;;60.22;25.15;;;;;;;8.79;100.00;102643.59;5230702;28;20016;-74
2023/04/17 07:12:58;;;;;;;51.72;23.67;;;;;;;8.81;100.00;102655.03;5232040;28;20473;-74
2023/04/17 07:15:30;;;;;;;64.50;25.67;;;;;;;8.80;100.00;102656.00;5210591;28;20028;-74
2023/04/17 07:18:00;;;;;;;53.22;22.17;;;;;;;8.82;100.00;102654.91;5227192;28;20009;-74
2023/04/17 07:20:30;;;;;;;58.53;24.20;;;;;;;8.82;100.00;102656.75;5228990;28;20107;-74
2023/04/17 07:23:01;;;;;;;61.03;25.40;;;;;;;8.78;100.00;102653.41;5230159;28;20520;-74
2023/04/17 07:25:31;;;;;;;62.33;25.88;;;;;;;8.72;100.00;102661.91;5232064;28;20021;-74
2023/04/17 07:28:02;;;;;;;66.00;26.45;;;;;;;8.75;100.00;102663.50;5213516;28;20134;-74
2023/04/17 07:30:32;;;;;;;66.53;28.17;;;;;;;8.69;100.00;102656.78;5233271;28;20029;-74
2023/04/17 07:33:03;;;;;;;58.38;25.52;;;;;;;8.78;100.00;102658.78;5238550;28;20048;-74
2023/04/17 07:35:33;;;;;;;61.08;25.55;;;;;;;8.86;100.00;102655.56;5202824;28;20029;-74
2023/04/17 07:38:04;;;;;;;60.17;27.27;;;;;;;9.04;100.00;102658.72;5216739;28;20579;-74
2023/04/17 07:40:35;;;;;;;59.90;25.50;;;;;;;9.07;100.00;102661.16;5231307;28;20058;-74
2023/04/17 07:43:05;;;;;;;61.58;27.10;;;;;;;9.16;100.00;102665.00;5231373;28;20476;-74
2023/04/17 07:45:36;;;;;;;61.05;27.88;;;;;;;9.22;100.00;102662.72;5233376;28;20020;-74
2023/04/17 07:48:07;;;;;;;57.97;25.63;;;;;;;9.28;100.00;102669.44;5240136;28;20061;-74
2023/04/17 07:50:38;;;;;;;66.13;27.80;;;;;;;9.37;100.00;102659.88;5218341;28;20101;-74
2023/04/17 07:53:08;;;;;;;57.63;27.05;;;;;;;9.44;100.00;102661.13;5228646;28;20020;-74
2023/04/17 07:55:45;;;;;;;55.88;27.10;;;;;;;9.40;100.00;102668.56;5234903;28;20035;-74
2023/04/17 07:58:15;;;;;;;52.80;23.48;;;;;;;9.49;100.00;102658.97;5229824;28;20029;-74
2023/04/17 08:01:09;;;;;;;54.47;24.38;;;;;;;9.50;100.00;102666.03;5217191;28;20036;-74
2023/04/17 08:03:43;;;;;;;60.45;26.50;;;;;;;9.58;100.00;102664.47;5190628;28;20052;-74
2023/04/17 08:06:14;;;;;;;57.30;26.13;;;;;;;9.59;100.00;102666.19;5207339;28;20636;-74
2023/04/17 08:08:46;;;;;;;60.45;26.77;;;;;;;9.62;100.00;102673.13;5210219;28;20044;-74
2023/04/17 08:11:17;;;;;;;60.83;26.35;;;;;;;9.64;100.00;102668.53;5210375;28;20037;-74
2023/04/17 08:13:47;;;;;;;60.50;26.73;;;;;;;9.57;100.00;102673.47;5210488;28;20056;-74
2023/04/17 08:16:18;;;;;;;66.65;27.98;;;;;;;9.53;100.00;102666.63;5209369;28;20444;-74
2023/04/17 08:18:48;;;;;;;57.38;24.90;;;;;;;9.52;100.00;102674.81;5207023;28;20041;-74
2023/04/17 08:21:19;;;;;;;60.90;27.23;;;;;;;9.48;100.00;102674.16;5209727;28;20048;-74
2023/04/17 08:23:49;;;;;;;62.47;27.63;;;;;;;9.46;100.00;102677.94;5208317;28;20037;-74
2023/04/17 08:26:21;;;;;;;61.65;27.42;;;;;;;9.38;100.00;102686.53;5209685;28;20057;-74
2023/04/17 08:28:52;;;;;;;67.63;26.65;;;;;;;9.40;100.00;102683.78;5210057;28;20533;-74
2023/04/17 08:31:23;;;;;;;65.75;28.70;;;;;;;9.37;100.00;102687.50;5205371;28;20037;-74
2023/04/17 08:33:54;;;;;;;74.20;29.08;;;;;;;9.33;100.00;102681.53;5212328;28;20040;-74
2023/04/17 08:36:25;;;;;;;66.85;28.98;;;;;;;9.39;100.00;102682.91;5229649;28;20113;-74
2023/04/17 08:38:55;;;;;;;70.80;29.02;;;;;;;9.48;100.00;102686.72;5218702;28;20040;-74
2023/04/17 08:41:36;;;;;;;70.50;28.20;;;;;;;9.51;100.00;102690.03;5211085;28;20025;-74
2023/04/17 08:44:06;;;;;;;63.45;28.15;;;;;;;9.56;100.00;102692.38;5215175;28;20469;-75
2023/04/17 08:46:38;;;;;;;70.93;29.90;;;;;;;9.54;100.00;102689.81;5229378;28;20025;-74
2023/04/17 08:49:08;;;;;;;71.78;28.95;;;;;;;9.56;100.00;102693.22;5233090;28;20025;-74
2023/04/17 08:51:39;;;;;;;63.08;27.98;;;;;;;9.59;100.00;102692.16;5229348;28;20025;-74
2023/04/17 08:54:09;;;;;;;74.22;29.58;;;;;;;9.59;100.00;102690.31;5238296;28;20027;-74
2023/04/17 08:56:40;;;;;;;67.00;28.45;;;;;;;9.59;100.00;102690.31;5218854;28;20025;-74
2023/04/17 08:59:10;;;;;;;66.47;27.75;;;;;;;9.58;100.00;102685.91;5226980;28;20029;-74
2023/04/17 09:02:01;;;;;;;63.38;27.35;;;;;;;9.79;100.00;102690.66;5228834;28;20013;-74
2023/04/17 09:04:46;;;;;;;63.65;26.75;;;;;;;9.75;100.00;102686.47;5232214;28;20082;-74
2023/04/17 09:07:28;;;;;;;68.45;28.60;;;;;;;9.74;100.00;102690.09;5229726;28;20036;-74
2023/04/17 09:09:59;;;;;;;70.15;28.90;;;;;;;9.81;100.00;102686.00;5222190;28;20091;-74
2023/04/17 09:12:29;;;;;;;60.20;28.08;;;;;;;9.79;100.00;102675.41;5213642;28;20081;-74
2023/04/17 09:15:15;;;;;;;57.85;27.65;;;;;;;9.81;100.00;102680.66;5214049;28;20055;-74
2023/04/17 09:17:46;;;;;;;63.45;26.50;;;;;;;9.95;100.00;102682.28;5208092;28;20322;-74
2023/04/17 09:20:16;;;;;;;58.00;25.73;;;;;;;9.98;100.00;102688.25;5229603;28;20194;-74
2023/04/17 09:22:47;;;;;;;57.08;26.98;;;;;;;9.98;100.00;102682.88;5211172;28;20031;-74
2023/04/17 09:25:19;;;;;;;54.55;25.92;;;;;;;10.12;100.00;102680.00;5229543;28;20117;-74
2023/04/17 09:27:50;;;;;;;57.92;27.13;;;;;;;10.24;100.00;102682.72;5236634;28;20039;-74
2023/04/17 09:30:23;;;;;;;54.17;25.20;;;;;;;10.32;100.00;102683.84;5230517;28;20029;-74
2023/04/17 09:33:13;;;;;;;62.80;27.83;;;;;;;10.28;100.00;102686.88;5232186;28;20029;-74
2023/04/17 09:35:43;;;;;;;56.05;26.13;;;;;;;10.34;100.00;102691.75;5233228;28;20104;-74
2023/04/17 09:38:15;;;;;;;53.20;24.95;;;;;;;10.51;100.00;102683.25;5214928;28;20031;-74
2023/04/17 09:40:45;;;;;;;59.83;26.52;;;;;;;10.59;100.00;102685.31;5215198;28;20229;-74
2023/04/17 09:43:20;;;;;;;55.90;26.17;;;;;;;10.57;100.00;102679.25;5228564;28;20068;-74
2023/04/17 09:45:51;;;;;;;60.05;26.23;;;;;;;10.61;100.00;102686.94;5213784;28;20534;-74
2023/04/17 09:48:21;;;;;;;58.53;25.73;;;;;;;10.67;100.00;102695.47;5225834;28;20427;-74
2023/04/17 09:50:53;;;;;;;53.67;26.10;;;;;;;10.71;100.00;102692.41;5227613;28;20036;-74
2023/04/17 09:53:24;;;;;;;52.05;24.38;;;;;;;10.68;100.00;102689.97;5235443;28;20036;-74
2023/04/17 09:55:55;;;;;;;60.17;27.48;;;;;;;10.82;100.00;102695.09;5232168;28;20690;-74
2023/04/17 09:58:25;;;;;;;60.20;27.02;;;;;;;10.93;100.00;102694.22;5214748;28;20024;-74
2023/04/17 10:00:56;;;;;;;53.33;25.83;;;;;;;11.01;100.00;102690.94;5195914;28;20021;-74
2023/04/17 10:03:26;;;;;;;55.85;26.83;;;;;;;11.03;100.00;102695.19;5231068;28;20021;-74
2023/04/17 10:05:57;;;;;;;67.00;26.70;;;;;;;11.05;100.00;102682.50;5228770;28;20028;-74
2023/04/17 10:08:28;;;;;;;60.92;27.50;;;;;;;11.19;100.00;102681.34;5232835;28;20393;-74
2023/04/17 10:11:15;;;;;;;60.92;28.25;;;;;;;11.52;100.00;102685.78;5194913;28;20032;-74
2023/04/17 10:13:52;;;;;;;52.55;25.58;;;;;;;11.84;100.00;102693.88;5227997;28;20058;-74
2023/04/17 10:16:33;;;;;;;59.83;27.08;;;;;;;12.17;100.00;102684.75;5210282;28;20440;-74
2023/04/17 10:19:41;;;;;;;55.22;26.02;;;;;;;12.37;100.00;102679.50;5232521;28;20028;-75
2023/04/17 10:22:13;;;;;;;54.95;25.33;;;;;;;12.58;100.00;102680.31;5230050;28;20103;-74
2023/04/17 10:24:46;;;;;;;53.13;24.63;;;;;;;12.59;100.00;102679.31;5213651;28;20024;-74
2023/04/17 10:27:35;;;;;;;47.00;24.27;;;;;;;12.76;100.00;102688.63;5226872;28;20600;-74
2023/04/17 10:30:09;;;;;;;51.13;25.88;;;;;;;12.83;100.00;102681.69;5231970;28;20527;-74
2023/04/17 10:32:44;;;;;;;45.03;23.50;;;;;;;12.66;100.00;102672.41;5211014;28;20036;-75
2023/04/17 10:35:14;;;;;;;49.00;25.08;;;;;;;12.62;100.00;102672.81;5225965;28;20021;-75
2023/04/17 10:37:46;;;;;;;46.33;24.63;;;;;;;12.46;100.00;102673.31;5212467;28;20465;-75
2023/04/17 10:40:20;;;;;;;51.95;25.42;;;;;;;12.26;100.00;102675.06;5232509;28;20048;-75
2023/04/17 10:43:22;;;;;;;54.42;25.83;;;;;;;12.13;100.00;102669.00;5231100;28;20013;-75
2023/04/17 10:46:22;;;;;;;58.72;27.13;;;;;;;12.26;100.00;102666.13;5231548;28;20099;-75
2023/04/17 10:48:55;;;;;;;55.50;26.33;;;;;;;12.45;100.00;102666.25;5229477;28;20028;-75
2023/04/17 10:51:26;;;;;;;52.67;25.65;;;;;;;12.77;100.00;102666.06;5213045;28;20068;-75
2023/04/17 10:54:16;;;;;;;47.67;23.85;;;;;;;12.95;100.00;102655.47;5231447;28;20024;-74
2023/04/17 10:56:47;;;;;;;45.10;24.08;;;;;;;13.32;100.00;102660.28;5209659;28;20028;-75
2023/04/17 10:59:18;;;;;;;41.70;23.02;;;;;;;13.46;100.00;102660.72;5234120;28;20043;-75
2023/04/17 11:01:49;;;;;;;44.08;23.02;;;;;;;13.72;100.00;102650.22;5218103;28;20017;-75
2023/04/17 11:04:30;;;;;;;46.13;23.75;;;;;;;14.18;100.00;102643.16;5229334;28;20041;-74
2023/04/17 11:07:01;;;;;;;41.22;22.60;;;;;;;14.36;100.00;102648.66;5234000;28;20028;-75
2023/04/17 11:09:32;;;;;;;37.05;21.80;;;;;;;14.09;100.00;102652.13;5236124;28;20028;-75
2023/04/17 11:12:03;;;;;;;41.35;22.35;;;;;;;13.87;100.00;102650.63;5238923;28;20669;-75
2023/04/17 11:14:34;;;;;;;42.83;23.02;;;;;;;13.94;100.00;102651.75;5211390;28;20037;-75
2023/04/17 11:17:07;;;;;;;42.28;22.77;;;;;;;14.25;100.00;102655.06;5230771;28;20024;-75
2023/04/17 11:19:38;;;;;;;37.88;22.50;;;;;;;14.63;100.00;102647.03;5228606;28;20128;-75
2023/04/17 11:22:10;;;;;;;42.65;23.15;;;;;;;14.69;100.00;102652.66;5227311;28;20108;-75
2023/04/17 11:24:40;;;;;;;46.17;25.00;;;;;;;14.70;100.00;102640.00;5209408;28;20029;-75
2023/04/17 11:27:11;;;;;;;44.88;23.40;;;;;;;14.65;100.00;102653.97;5227178;28;20024;-75
2023/04/17 11:29:43;;;;;;;39.75;23.50;;;;;;;14.78;100.00;102648.22;5226738;28;20381;-75